Time;durP1;ratioP1;P1;durP2;ratioP2;P2;SDS_P1;SDS_P2;PMS_P1;PMS_P2;Temp;Humidity;BMP_temperature;BMP_pressure;BME280_temperature;BME280_humidity;BME280_pressure;Samples;Min_cycle;Max_cycle;Signal;HPM_P1;HPM_P2
2023/08/25 00:00:29;;;;;;;16.70;8.10;;;20.80;99.90;;;;;;7287247;19;20201;-79
2023/08/25 00:02:55;;;;;;;16.63;8.33;;;20.80;99.90;;;;;;7285545;19;20538;-79
2023/08/25 00:05:23;;;;;;;15.17;7.40;;;20.70;99.90;;;;;;7286935;19;20229;-79
2023/08/25 00:07:49;;;;;;;16.20;7.87;;;20.70;99.90;;;;;;7288266;19;20251;-79
2023/08/25 00:10:15;;;;;;;23.50;8.77;;;20.70;99.90;;;;;;7287120;19;20200;-79
2023/08/25 00:12:41;;;;;;;13.57;7.23;;;20.70;99.90;;;;;;7291305;19;20633;-81
2023/08/25 00:15:08;;;;;;;14.73;6.77;;;20.70;99.90;;;;;;7308822;19;20694;-79
2023/08/25 00:17:33;;;;;;;14.83;7.23;;;20.80;99.90;;;;;;7286423;19;20187;-79
2023/08/25 00:20:00;;;;;;;18.23;8.00;;;20.80;99.90;;;;;;7281383;19;20650;-79
2023/08/25 00:22:27;;;;;;;17.43;7.60;;;20.90;99.90;;;;;;7285593;19;20191;-79
2023/08/25 00:24:55;;;;;;;16.90;7.57;;;20.80;99.90;;;;;;7287833;19;20196;-79
2023/08/25 00:27:21;;;;;;;15.13;7.83;;;20.80;99.90;;;;;;7287137;19;20191;-79
2023/08/25 00:29:48;;;;;;;19.17;8.90;;;20.80;99.90;;;;;;7286793;19;20216;-79
2023/08/25 00:32:14;;;;;;;19.37;8.43;;;20.90;99.90;;;;;;7286801;19;20220;-79
2023/08/25 00:34:39;;;;;;;19.10;7.80;;;21.00;99.90;;;;;;7308879;19;20187;-79
2023/08/25 00:37:06;;;;;;;16.83;7.80;;;21.00;99.90;;;;;;7308937;19;20212;-79
2023/08/25 00:39:32;;;;;;;17.67;7.67;;;21.00;99.90;;;;;;7283409;19;20191;-79
2023/08/25 00:41:58;;;;;;;17.87;7.10;;;21.00;99.90;;;;;;7285439;19;20202;-79
2023/08/25 00:44:24;;;;;;;16.90;7.50;;;21.10;99.90;;;;;;7285279;19;20188;-79
2023/08/25 00:46:52;;;;;;;22.90;7.60;;;21.00;99.90;;;;;;7284917;19;20249;-79
2023/08/25 00:49:20;;;;;;;19.00;7.10;;;20.90;99.90;;;;;;7287497;19;20194;-80
2023/08/25 00:51:46;;;;;;;19.33;6.80;;;20.90;99.90;;;;;;7284101;19;20184;-79
2023/08/25 00:54:12;;;;;;;17.33;6.90;;;20.70;99.90;;;;;;7283998;19;20191;-79
2023/08/25 00:56:39;;;;;;;16.63;6.27;;;20.70;99.90;;;;;;7307151;19;20192;-79
2023/08/25 00:59:05;;;;;;;13.83;5.97;;;20.70;99.90;;;;;;7284907;19;20190;-80
2023/08/25 01:01:31;;;;;;;14.97;6.37;;;20.70;99.90;;;;;;7284262;19;20231;-79
2023/08/25 01:03:57;;;;;;;17.00;6.33;;;20.80;99.90;;;;;;7285219;19;20667;-79
2023/08/25 01:06:23;;;;;;;15.20;6.40;;;20.80;99.90;;;;;;7283297;19;20187;-79
2023/08/25 01:08:49;;;;;;;16.57;6.60;;;20.80;99.90;;;;;;7285147;19;20187;-79
2023/08/25 01:11:36;;;;;;;16.53;6.63;;;20.90;99.90;;;;;;7284981;19;20210;-79
2023/08/25 01:14:31;;;;;;;11.97;5.70;;;20.90;99.90;;;;;;7285014;19;20198;-79
2023/08/25 01:17:27;;;;;;;16.23;6.23;;;20.90;99.90;;;;;;7182572;19;2004592;-79
2023/08/25 01:19:58;;;;;;;15.00;5.67;;;20.90;99.90;;;;;;7181920;19;2004627;-80
2023/08/25 01:22:33;;;;;;;13.80;5.77;;;20.90;99.90;;;;;;7283930;19;20205;-79
2023/08/25 01:25:22;;;;;;;15.37;5.77;;;20.90;99.90;;;;;;7279146;19;20602;-80
2023/08/25 01:27:49;;;;;;;17.17;5.90;;;20.90;99.90;;;;;;7177651;19;2006247;-79
2023/08/25 01:30:15;;;;;;;14.20;5.97;;;21.00;99.90;;;;;;7279549;19;20304;-80
2023/08/25 01:32:41;;;;;;;15.23;5.40;;;21.00;99.90;;;;;;7286554;19;20192;-79
2023/08/25 01:35:07;;;;;;;14.63;5.97;;;20.90;99.90;;;;;;7302709;19;20188;-79
2023/08/25 01:37:41;;;;;;;13.57;5.80;;;20.90;99.90;;;;;;7280142;19;20246;-80
2023/08/25 01:40:20;;;;;;;14.53;5.17;;;20.80;99.90;;;;;;7281331;19;20267;-79
2023/08/25 01:42:49;;;;;;;18.23;5.53;;;20.90;99.90;;;;;;7182382;19;2004853;-79
2023/08/25 01:45:17;;;;;;;18.53;5.20;;;20.90;99.90;;;;;;7282748;19;21693;-80
2023/08/25 01:47:46;;;;;;;12.87;5.07;;;20.90;99.90;;;;;;7284083;19;20272;-80
2023/08/25 01:50:14;;;;;;;11.83;5.03;;;21.00;99.90;;;;;;7283628;19;20191;-80
2023/08/25 01:52:41;;;;;;;15.90;5.43;;;21.00;99.90;;;;;;7296916;19;20196;-79
2023/08/25 01:55:08;;;;;;;14.33;5.30;;;20.90;99.90;;;;;;7305837;19;20196;-79
2023/08/25 01:57:34;;;;;;;12.10;5.00;;;20.90;99.90;;;;;;7283666;19;20679;-79
2023/08/25 02:00:00;;;;;;;12.60;4.63;;;21.00;99.90;;;;;;7283175;19;20204;-79
2023/08/25 02:02:26;;;;;;;12.10;4.80;;;21.10;99.90;;;;;;7283872;19;20188;-79
2023/08/25 02:04:54;;;;;;;10.80;4.77;;;21.00;99.90;;;;;;7283617;19;20196;-79
2023/08/25 02:07:20;;;;;;;15.80;5.27;;;20.90;99.90;;;;;;7282935;19;20209;-79
2023/08/25 02:09:45;;;;;;;14.33;5.53;;;20.80;99.90;;;;;;7284715;19;20206;-79
2023/08/25 02:12:11;;;;;;;15.93;5.07;;;20.80;99.90;;;;;;7287289;19;20197;-79
2023/08/25 02:14:37;;;;;;;12.47;4.70;;;20.70;99.90;;;;;;7304427;19;20183;-80
2023/08/25 02:17:03;;;;;;;16.30;5.83;;;20.70;99.90;;;;;;7281778;19;20192;-80
2023/08/25 02:19:29;;;;;;;14.73;5.70;;;20.70;99.90;;;;;;7283051;19;20184;-80
2023/08/25 02:21:55;;;;;;;11.40;5.10;;;20.70;99.90;;;;;;7283305;19;20188;-79
2023/08/25 02:24:20;;;;;;;14.17;4.97;;;20.80;99.90;;;;;;7282841;19;20189;-79
2023/08/25 02:26:46;;;;;;;14.77;4.90;;;20.80;99.90;;;;;;7282082;19;20659;-79
2023/08/25 02:29:12;;;;;;;15.90;5.97;;;20.80;99.90;;;;;;7282522;19;20192;-79
2023/08/25 02:31:38;;;;;;;15.70;5.00;;;20.80;99.90;;;;;;7304736;19;20184;-79
2023/08/25 02:34:04;;;;;;;16.07;5.40;;;20.90;99.90;;;;;;7283984;19;20184;-79
2023/08/25 02:36:31;;;;;;;13.33;5.23;;;21.00;99.90;;;;;;7282707;19;20182;-79
2023/08/25 02:38:57;;;;;;;15.87;5.27;;;20.90;99.90;;;;;;7281945;19;20199;-78
2023/08/25 02:41:23;;;;;;;11.53;4.50;;;20.90;99.90;;;;;;7283780;19;20198;-78
2023/08/25 02:43:48;;;;;;;13.20;4.80;;;21.00;99.90;;;;;;7285164;19;20187;-79
2023/08/25 02:46:14;;;;;;;12.67;5.23;;;21.00;99.90;;;;;;7288307;19;20182;-79
2023/08/25 02:48:40;;;;;;;12.07;4.93;;;21.20;99.90;;;;;;7306312;19;20547;-79
2023/08/25 02:51:06;;;;;;;13.23;4.90;;;21.30;99.90;;;;;;7301190;19;20192;-79
2023/08/25 02:53:31;;;;;;;17.57;5.00;;;21.30;99.90;;;;;;7287449;19;20206;-79
2023/08/25 02:55:57;;;;;;;13.27;4.50;;;21.30;99.90;;;;;;7289496;19;20262;-80
2023/08/25 02:58:23;;;;;;;12.07;4.67;;;21.40;99.90;;;;;;7288496;19;20200;-79
2023/08/25 03:00:49;;;;;;;12.83;4.73;;;21.40;99.90;;;;;;7286317;19;20184;-80
2023/08/25 03:03:15;;;;;;;13.20;4.90;;;21.50;99.90;;;;;;7289889;19;20317;-79
2023/08/25 03:05:41;;;;;;;12.63;4.83;;;21.50;99.90;;;;;;7299312;19;20199;-79
2023/08/25 03:08:12;;;;;;;13.47;4.50;;;21.50;99.90;;;;;;7308741;19;20195;-79
2023/08/25 03:10:41;;;;;;;11.70;4.70;;;21.50;99.90;;;;;;7288382;19;20188;-79
2023/08/25 03:13:11;;;;;;;12.43;4.80;;;21.50;99.90;;;;;;7278318;19;20219;-79
2023/08/25 03:15:37;;;;;;;10.87;4.10;;;21.40;99.90;;;;;;7308048;19;20196;-79
2023/08/25 03:18:03;;;;;;;11.90;4.47;;;21.30;99.90;;;;;;7288345;19;20737;-78
2023/08/25 03:20:29;;;;;;;11.50;3.90;;;21.20;99.90;;;;;;7289176;19;20199;-78
2023/08/25 03:22:57;;;;;;;10.50;4.50;;;21.20;99.90;;;;;;7288532;19;20688;-78
2023/08/25 03:25:23;;;;;;;13.03;4.17;;;21.30;99.90;;;;;;7288266;19;20244;-78
2023/08/25 03:27:49;;;;;;;15.43;4.43;;;21.40;99.90;;;;;;7285921;19;20725;-80
2023/08/25 03:30:15;;;;;;;12.10;4.20;;;21.30;99.90;;;;;;7287452;19;20193;-79
2023/08/25 03:32:43;;;;;;;8.57;4.30;;;21.40;99.90;;;;;;7299678;19;20255;-79
2023/08/25 03:35:09;;;;;;;14.50;4.80;;;21.40;99.90;;;;;;7310024;19;20212;-79
2023/08/25 03:37:35;;;;;;;13.40;4.50;;;21.50;99.90;;;;;;7287879;19;20252;-79
2023/08/25 03:40:05;;;;;;;9.10;4.30;;;21.60;99.90;;;;;;7286215;19;20678;-79
2023/08/25 03:42:31;;;;;;;9.73;4.20;;;21.60;99.90;;;;;;7287539;19;20186;-79
2023/08/25 03:44:56;;;;;;;12.23;4.37;;;21.60;99.90;;;;;;7283824;19;20560;-79
2023/08/25 03:47:22;;;;;;;8.53;3.87;;;21.60;99.90;;;;;;7285015;19;20266;-79
2023/08/25 03:49:50;;;;;;;9.37;4.10;;;21.70;99.90;;;;;;7286340;19;20209;-79
2023/08/25 03:52:16;;;;;;;10.63;4.53;;;21.70;99.90;;;;;;7285257;19;20177;-80
2023/08/25 03:54:41;;;;;;;10.73;4.53;;;21.70;99.90;;;;;;7288033;19;20193;-79
2023/08/25 03:57:08;;;;;;;10.93;4.40;;;21.70;99.90;;;;;;7308043;19;20184;-79
2023/08/25 03:59:34;;;;;;;14.00;5.03;;;21.70;99.90;;;;;;7284372;19;20189;-79
2023/08/25 04:02:02;;;;;;;13.03;4.40;;;21.70;99.90;;;;;;7286554;19;20186;-80
2023/08/25 04:04:28;;;;;;;9.93;4.63;;;21.80;99.90;;;;;;7286930;19;20539;-79
2023/08/25 04:06:54;;;;;;;10.87;4.70;;;21.80;99.90;;;;;;7286035;19;20210;-79
2023/08/25 04:09:20;;;;;;;11.73;4.53;;;21.80;99.90;;;;;;7284399;19;20189;-79
2023/08/25 04:11:46;;;;;;;11.77;5.03;;;21.80;99.90;;;;;;7285283;19;20213;-79
2023/08/25 04:14:12;;;;;;;9.33;4.43;;;21.70;99.90;;;;;;7288368;19;20268;-78
2023/08/25 04:16:38;;;;;;;12.03;4.60;;;21.70;99.90;;;;;;7308279;19;20193;-80
2023/08/25 04:19:04;;;;;;;13.57;5.57;;;21.60;99.90;;;;;;7285617;19;20181;-79
2023/08/25 04:21:32;;;;;;;10.20;4.80;;;21.60;99.90;;;;;;7286376;19;20207;-80
2023/08/25 04:23:58;;;;;;;9.23;4.50;;;21.60;99.90;;;;;;7285878;19;20192;-79
2023/08/25 04:26:24;;;;;;;12.10;4.60;;;21.70;99.90;;;;;;7283198;19;20267;-79
2023/08/25 04:28:49;;;;;;;14.93;4.70;;;21.70;99.90;;;;;;7285417;19;20181;-79
2023/08/25 04:31:16;;;;;;;12.97;5.17;;;21.80;99.90;;;;;;7286435;19;20299;-79
2023/08/25 04:33:47;;;;;;;12.83;5.30;;;21.80;99.90;;;;;;7284838;19;20184;-79
2023/08/25 04:36:14;;;;;;;12.07;4.90;;;21.70;99.90;;;;;;7286978;19;20200;-79
2023/08/25 04:38:40;;;;;;;11.83;5.33;;;21.70;99.90;;;;;;7307590;19;20181;-80
2023/08/25 04:41:06;;;;;;;12.03;4.63;;;21.70;99.90;;;;;;7286836;19;20548;-80
2023/08/25 04:43:35;;;;;;;14.23;4.93;;;21.80;99.90;;;;;;7283355;19;20264;-80
2023/08/25 04:46:01;;;;;;;10.87;4.43;;;21.80;99.90;;;;;;7284691;19;20198;-79
2023/08/25 04:48:27;;;;;;;15.70;5.00;;;21.80;99.90;;;;;;7284896;19;20193;-80
2023/08/25 04:50:53;;;;;;;11.83;4.80;;;21.80;99.90;;;;;;7284891;19;20192;-79
2023/08/25 04:53:19;;;;;;;12.67;5.27;;;21.90;99.90;;;;;;7285029;19;20193;-79
2023/08/25 04:55:47;;;;;;;12.97;4.67;;;22.00;99.90;;;;;;7286248;19;20524;-79
2023/08/25 04:58:13;;;;;;;15.17;5.27;;;22.00;99.90;;;;;;7282020;19;20207;-78
2023/08/25 05:00:39;;;;;;;9.73;4.70;;;22.00;99.90;;;;;;7305201;19;20188;-79
2023/08/25 05:03:07;;;;;;;10.53;4.50;;;21.90;99.90;;;;;;7285799;19;20200;-79
2023/08/25 05:05:33;;;;;;;12.87;5.30;;;21.80;99.90;;;;;;7281633;19;20305;-79
2023/08/25 05:07:58;;;;;;;15.60;5.67;;;21.80;99.90;;;;;;7284332;19;20207;-79
2023/08/25 05:10:25;;;;;;;13.20;5.77;;;21.90;99.90;;;;;;7285106;19;20203;-79
2023/08/25 05:12:50;;;;;;;15.53;5.77;;;21.90;99.90;;;;;;7282466;19;20208;-79
2023/08/25 05:15:17;;;;;;;11.50;5.53;;;21.90;99.90;;;;;;7283126;19;20177;-79
2023/08/25 05:17:42;;;;;;;12.03;5.63;;;21.90;99.90;;;;;;7284404;19;20979;-79
2023/08/25 05:20:11;;;;;;;16.50;6.40;;;22.00;99.90;;;;;;7298776;19;20185;-79
2023/08/25 05:22:36;;;;;;;18.83;6.97;;;22.00;99.90;;;;;;7300175;19;20185;-79
2023/08/25 05:25:03;;;;;;;19.63;7.47;;;21.90;99.90;;;;;;7284971;19;20188;-78
2023/08/25 05:27:30;;;;;;;21.67;7.27;;;22.00;99.90;;;;;;7285523;19;20190;-79
2023/08/25 05:29:57;;;;;;;21.43;8.13;;;22.10;99.90;;;;;;7284683;19;20185;-79
2023/08/25 05:32:24;;;;;;;18.63;8.10;;;22.10;99.90;;;;;;7284667;19;20264;-79
2023/08/25 05:35:08;;;;;;;23.80;9.17;;;21.90;99.90;;;;;;7284870;19;20612;-79
2023/08/25 05:37:35;;;;;;;20.10;10.17;;;21.60;99.90;;;;;;7284628;19;20679;-80
2023/08/25 05:40:01;;;;;;;18.40;9.23;;;21.60;99.90;;;;;;7283289;19;20193;-80
2023/08/25 05:42:32;;;;;;;27.37;9.70;;;21.40;99.90;;;;;;7284121;19;21197;-79
2023/08/25 05:44:58;;;;;;;18.87;10.07;;;21.20;99.90;;;;;;7283967;19;20195;-79
2023/08/25 05:47:23;;;;;;;18.67;10.27;;;21.10;99.90;;;;;;7282664;19;20205;-79
2023/08/25 05:49:50;;;;;;;19.40;11.47;;;21.00;99.90;;;;;;7281548;19;20260;-79
2023/08/25 05:52:16;;;;;;;21.50;10.87;;;20.90;99.90;;;;;;7283291;19;20199;-79
2023/08/25 05:54:41;;;;;;;21.20;10.67;;;20.80;99.90;;;;;;7290677;19;20182;-78
2023/08/25 05:57:08;;;;;;;20.40;10.83;;;20.70;99.90;;;;;;7304928;19;20182;-79
2023/08/25 05:59:33;;;;;;;24.30;12.30;;;20.70;99.90;;;;;;7282403;19;20199;-78
2023/08/25 06:01:59;;;;;;;20.53;10.70;;;20.70;99.90;;;;;;7282336;19;20290;-78
2023/08/25 06:04:26;;;;;;;22.43;12.20;;;20.70;99.90;;;;;;7282336;19;20552;-78
2023/08/25 06:06:52;;;;;;;19.00;11.93;;;20.80;99.90;;;;;;7281941;19;20226;-78
2023/08/25 06:09:17;;;;;;;21.10;11.33;;;20.80;99.90;;;;;;7282709;19;20647;-78
2023/08/25 06:11:44;;;;;;;20.17;12.23;;;20.90;99.90;;;;;;7281946;19;20188;-78
2023/08/25 06:14:10;;;;;;;24.43;12.33;;;20.90;99.90;;;;;;7303759;19;20202;-79
2023/08/25 06:16:38;;;;;;;26.00;12.03;;;20.90;99.90;;;;;;7282972;19;20187;-78
2023/08/25 06:19:04;;;;;;;21.57;12.23;;;20.90;99.90;;;;;;7289940;19;20813;-79
2023/08/25 06:21:30;;;;;;;22.17;12.53;;;20.80;99.90;;;;;;7288170;19;25316;-79
2023/08/25 06:23:56;;;;;;;22.03;12.80;;;20.90;99.90;;;;;;7290285;19;20199;-79
2023/08/25 06:26:21;;;;;;;21.43;12.50;;;20.90;99.90;;;;;;7290014;19;20198;-79
2023/08/25 06:28:49;;;;;;;24.00;13.23;;;20.90;99.90;;;;;;7288560;19;20189;-78
2023/08/25 06:31:15;;;;;;;25.57;12.97;;;20.90;99.90;;;;;;7289103;19;20192;-79
2023/08/25 06:33:41;;;;;;;21.43;13.90;;;21.00;99.90;;;;;;7300105;19;20195;-78
2023/08/25 06:36:07;;;;;;;23.20;14.10;;;21.10;99.90;;;;;;7308721;19;20574;-78
2023/08/25 06:38:33;;;;;;;21.33;13.63;;;21.30;99.90;;;;;;7287919;19;21005;-78
2023/08/25 06:40:59;;;;;;;21.77;13.23;;;21.40;99.90;;;;;;7289022;19;20199;-79
2023/08/25 06:43:25;;;;;;;23.10;13.80;;;21.60;99.90;;;;;;7288572;19;20558;-79
2023/08/25 06:45:50;;;;;;;27.10;13.80;;;21.70;99.90;;;;;;7289723;19;20205;-79
2023/08/25 06:48:16;;;;;;;21.63;13.00;;;21.80;99.90;;;;;;7287397;19;20200;-79
2023/08/25 06:50:42;;;;;;;22.13;12.10;;;21.70;99.90;;;;;;7295487;19;20184;-78
2023/08/25 06:53:08;;;;;;;20.07;11.23;;;21.70;99.90;;;;;;7310616;19;20683;-79
2023/08/25 06:55:34;;;;;;;16.53;10.10;;;21.70;99.90;;;;;;7289464;19;20554;-78
2023/08/25 06:58:00;;;;;;;19.43;11.33;;;21.70;99.90;;;;;;7289967;19;20787;-82
2023/08/25 07:00:26;;;;;;;17.57;10.77;;;21.70;99.90;;;;;;7289385;19;20194;-82
2023/08/25 07:02:52;;;;;;;20.50;11.63;;;21.70;99.90;;;;;;7289679;19;20228;-80
2023/08/25 07:05:18;;;;;;;20.53;12.17;;;21.70;99.90;;;;;;7290183;19;21028;-81
2023/08/25 07:07:44;;;;;;;16.43;10.83;;;21.70;99.90;;;;;;7289297;19;20618;-80
2023/08/25 07:10:13;;;;;;;19.27;11.80;;;21.70;99.90;;;;;;7309723;19;20268;-80
2023/08/25 07:12:40;;;;;;;21.07;12.80;;;21.70;99.90;;;;;;7290088;19;20207;-80
2023/08/25 07:15:10;;;;;;;20.50;13.47;;;21.70;99.90;;;;;;7290015;19;20281;-81
2023/08/25 07:17:36;;;;;;;21.33;13.40;;;21.60;99.90;;;;;;7288747;19;20202;-81
2023/08/25 07:20:05;;;;;;;21.07;13.40;;;21.60;99.90;;;;;;7288832;19;20288;-80
2023/08/25 07:22:32;;;;;;;19.37;12.80;;;21.60;99.90;;;;;;7289129;19;20577;-80
2023/08/25 07:24:58;;;;;;;18.50;14.00;;;21.50;99.90;;;;;;7289968;19;20199;-80
2023/08/25 07:27:24;;;;;;;21.70;15.23;;;21.60;99.90;;;;;;7287043;19;20193;-81
2023/08/25 07:29:53;;;;;;;19.93;15.23;;;21.50;99.90;;;;;;7288660;19;20200;-81
2023/08/25 07:32:22;;;;;;;21.07;16.63;;;21.50;99.90;;;;;;7290377;19;20187;-79
2023/08/25 07:34:47;;;;;;;21.10;16.77;;;21.50;99.90;;;;;;7291687;19;20195;-81
2023/08/25 07:37:13;;;;;;;22.97;16.67;;;21.50;99.90;;;;;;7289421;19;20287;-79
2023/08/25 07:39:40;;;;;;;21.37;17.37;;;21.50;99.90;;;;;;7310381;19;20193;-80
2023/08/25 07:42:06;;;;;;;23.23;18.00;;;21.60;99.90;;;;;;7287333;19;20212;-80
2023/08/25 07:44:32;;;;;;;21.90;18.07;;;21.60;99.90;;;;;;7288564;19;20189;-80
2023/08/25 07:46:57;;;;;;;23.23;18.13;;;21.60;99.90;;;;;;7286995;19;20896;-80
2023/08/25 07:49:23;;;;;;;22.40;18.40;;;21.60;99.90;;;;;;7289349;19;20189;-80
2023/08/25 07:51:49;;;;;;;25.47;18.57;;;21.70;99.90;;;;;;7286418;19;20195;-80
2023/08/25 07:54:15;;;;;;;26.40;18.03;;;21.50;99.90;;;;;;7287735;19;20616;-80
2023/08/25 07:56:40;;;;;;;23.47;17.27;;;21.50;99.90;;;;;;7310635;19;20191;-80
2023/08/25 07:59:07;;;;;;;20.73;16.97;;;21.50;99.90;;;;;;7296155;19;20199;-81
2023/08/25 08:01:33;;;;;;;25.07;17.67;;;21.50;99.90;;;;;;7288188;19;20192;-81
2023/08/25 08:03:59;;;;;;;25.17;18.83;;;21.50;99.90;;;;;;7287959;19;20263;-80
2023/08/25 08:06:24;;;;;;;24.10;18.47;;;21.60;99.90;;;;;;7287223;19;20185;-80
2023/08/25 08:08:50;;;;;;;25.40;18.57;;;21.60;99.90;;;;;;7286873;19;20189;-80
2023/08/25 08:11:16;;;;;;;23.40;17.83;;;21.60;99.90;;;;;;7288146;19;20611;-80
2023/08/25 08:13:42;;;;;;;22.97;18.80;;;21.70;99.90;;;;;;7295301;19;20185;-80
2023/08/25 08:16:08;;;;;;;27.23;19.23;;;21.60;99.90;;;;;;7308088;19;20189;-81
2023/08/25 08:18:33;;;;;;;27.93;20.07;;;21.60;99.90;;;;;;7285992;19;20181;-80
2023/08/25 08:20:59;;;;;;;29.70;21.37;;;21.80;99.90;;;;;;7287701;19;20640;-80
2023/08/25 08:23:25;;;;;;;30.17;21.83;;;21.90;99.90;;;;;;7287197;19;20670;-80
2023/08/25 08:25:51;;;;;;;32.67;22.33;;;22.00;99.90;;;;;;7286748;19;20642;-80
2023/08/25 08:28:16;;;;;;;34.80;22.20;;;22.00;99.90;;;;;;7287466;19;20272;-80
2023/08/25 08:30:43;;;;;;;32.87;23.40;;;22.00;99.90;;;;;;7288321;19;20191;-81
2023/08/25 08:33:09;;;;;;;31.73;22.40;;;22.10;99.90;;;;;;7307958;19;20181;-81
2023/08/25 08:35:36;;;;;;;31.47;23.00;;;22.10;99.90;;;;;;7286643;19;20190;-80
2023/08/25 08:38:01;;;;;;;30.27;20.93;;;22.10;99.90;;;;;;7286142;19;20272;-80
2023/08/25 08:40:31;;;;;;;29.40;20.93;;;22.30;99.90;;;;;;7283710;19;20546;-80
2023/08/25 08:43:02;;;;;;;28.03;19.67;;;22.60;99.90;;;;;;7286142;19;20193;-80
2023/08/25 08:45:34;;;;;;;27.70;20.17;;;22.90;99.90;;;;;;7285217;19;20204;-79
2023/08/25 08:48:03;;;;;;;27.73;19.30;;;23.10;99.90;;;;;;7287062;19;20204;-79
2023/08/25 08:50:33;;;;;;;27.70;19.40;;;23.10;99.90;;;;;;7285507;19;20193;-80
2023/08/25 08:53:00;;;;;;;28.37;19.30;;;23.00;99.90;;;;;;7283713;19;20193;-80
2023/08/25 08:55:27;;;;;;;27.17;17.80;;;23.20;99.90;;;;;;7285541;19;20200;-80
2023/08/25 08:57:53;;;;;;;25.73;19.13;;;23.20;99.90;;;;;;7282871;19;20193;-81
2023/08/25 09:00:20;;;;;;;27.27;19.90;;;23.30;99.90;;;;;;7284198;19;20575;-80
2023/08/25 09:02:53;;;;;;;28.63;20.10;;;23.30;99.90;;;;;;7285709;19;20185;-80
2023/08/25 09:05:27;;;;;;;30.73;20.67;;;23.40;99.90;;;;;;7285019;19;20679;-80
2023/08/25 09:07:59;;;;;;;28.50;19.37;;;23.40;99.90;;;;;;7284853;19;20624;-80
2023/08/25 09:10:26;;;;;;;31.00;20.30;;;23.40;99.90;;;;;;7285676;19;20765;-80
2023/08/25 09:12:52;;;;;;;29.80;19.23;;;23.40;99.90;;;;;;7284957;19;20253;-80
2023/08/25 09:15:26;;;;;;;26.00;18.37;;;23.40;99.90;;;;;;7285151;19;20260;-78
2023/08/25 09:18:01;;;;;;;25.63;17.70;;;23.40;99.90;;;;;;7282657;19;20188;-79
2023/08/25 09:20:30;;;;;;;27.30;18.37;;;23.40;99.90;;;;;;7280552;19;20697;-79
2023/08/25 09:22:56;;;;;;;26.57;18.50;;;23.50;99.90;;;;;;7285572;19;20192;-79
2023/08/25 09:25:25;;;;;;;27.07;18.23;;;23.40;99.90;;;;;;7282799;19;20660;-78
2023/08/25 09:27:59;;;;;;;30.23;20.10;;;23.40;99.90;;;;;;7283062;19;20715;-77
2023/08/25 09:30:40;;;;;;;33.67;20.23;;;23.40;99.90;;;;;;7283223;19;20185;-77
2023/08/25 09:33:09;;;;;;;32.20;19.97;;;23.40;99.90;;;;;;7283450;19;20196;-78
2023/08/25 09:35:35;;;;;;;32.53;21.30;;;23.30;99.90;;;;;;7283629;19;20181;-78
2023/08/25 09:38:02;;;;;;;34.77;20.53;;;23.40;99.90;;;;;;7283792;19;20280;-79
2023/08/25 09:40:29;;;;;;;30.97;20.70;;;23.60;99.90;;;;;;7282377;19;20192;-77
2023/08/25 09:43:00;;;;;;;29.40;19.83;;;24.00;99.90;;;;;;7282284;19;20547;-78
2023/08/25 09:45:29;;;;;;;27.43;18.60;;;24.50;99.90;;;;;;7282785;19;20189;-78
2023/08/25 09:48:10;;;;;;;32.03;20.37;;;24.70;99.90;;;;;;7283099;19;20191;-78
2023/08/25 09:50:41;;;;;;;27.90;19.10;;;24.90;99.90;;;;;;7282291;19;20192;-78
2023/08/25 09:53:08;;;;;;;31.03;21.37;;;24.90;99.90;;;;;;7280290;19;20220;-78
2023/08/25 09:55:37;;;;;;;31.47;21.97;;;24.60;99.90;;;;;;7281942;19;20574;-79
2023/08/25 09:58:08;;;;;;;31.90;22.43;;;24.30;99.90;;;;;;7280028;19;20188;-78
2023/08/25 10:00:35;;;;;;;35.70;23.70;;;24.00;99.90;;;;;;7282034;19;20775;-78
2023/08/25 10:03:08;;;;;;;35.03;24.23;;;23.70;99.90;;;;;;7282694;19;20209;-78
2023/08/25 10:05:36;;;;;;;37.43;24.37;;;23.60;99.90;;;;;;7277624;19;20188;-78
2023/08/25 10:08:02;;;;;;;38.83;24.90;;;23.60;99.90;;;;;;7281190;19;20201;-77
2023/08/25 10:10:33;;;;;;;39.10;24.93;;;23.60;99.90;;;;;;7280098;19;20192;-77
2023/08/25 10:13:03;;;;;;;38.30;26.00;;;23.60;99.90;;;;;;7281322;19;20656;-77
2023/08/25 10:15:30;;;;;;;42.57;26.80;;;23.70;99.90;;;;;;7282029;19;20212;-77
2023/08/25 10:18:02;;;;;;;40.03;26.37;;;23.60;99.90;;;;;;7281162;19;20191;-77
2023/08/25 10:20:31;;;;;;;45.20;26.37;;;23.40;99.90;;;;;;7280253;19;20201;-78
2023/08/25 10:22:57;;;;;;;44.60;26.00;;;23.30;99.90;;;;;;7281395;19;20272;-77
2023/08/25 10:25:31;;;;;;;47.23;28.10;;;23.20;99.90;;;;;;7278075;19;20200;-76
2023/08/25 10:27:59;;;;;;;45.30;27.90;;;22.80;99.90;;;;;;7276493;19;20189;-75
2023/08/25 10:30:27;;;;;;;42.23;25.70;;;22.70;99.90;;;;;;7279716;19;20227;-76
2023/08/25 10:33:01;;;;;;;41.30;25.90;;;22.50;99.90;;;;;;7278436;19;20188;-76
2023/08/25 10:35:41;;;;;;;41.97;26.57;;;22.40;99.90;;;;;;7278838;19;20553;-75
2023/08/25 10:38:23;;;;;;;42.47;24.77;;;22.40;99.90;;;;;;7278121;19;20652;-76
2023/08/25 10:41:09;;;;;;;46.53;26.83;;;22.60;99.90;;;;;;7174101;19;2004544;-76
2023/08/25 10:43:37;;;;;;;41.80;24.97;;;22.70;99.90;;;;;;7277863;19;20185;-74
2023/08/25 10:46:10;;;;;;;40.73;24.93;;;22.70;99.90;;;;;;7278478;19;21463;-77
2023/08/25 10:48:50;;;;;;;40.20;25.50;;;23.00;99.90;;;;;;7282787;19;20192;-78
2023/08/25 10:51:18;;;;;;;36.10;23.43;;;23.10;99.90;;;;;;7258086;19;20188;-77
2023/08/25 10:53:46;;;;;;;34.40;23.00;;;24.20;99.90;;;;;;7279613;19;20679;-78
2023/08/25 10:56:33;;;;;;;37.50;21.80;;;26.30;99.90;;;;;;7292839;19;20288;-77
2023/08/25 10:59:02;;;;;;;32.20;22.02;;;28.50;99.90;;;;;;7281055;19;20188;-78
2023/08/25 11:01:54;;;;;;;29.30;20.77;;;29.80;99.90;;;;;;7279730;19;20196;-78
2023/08/25 11:04:23;;;;;;;30.30;20.75;;;30.10;99.90;;;;;;7178610;19;2004791;-77
2023/08/25 11:06:51;;;;;;;31.92;22.52;;;29.30;99.90;;;;;;7287290;19;20304;-77
2023/08/25 11:09:26;;;;;;;28.30;20.73;;;28.80;99.90;;;;;;7287653;19;20649;-78
2023/08/25 11:11:58;;;;;;;28.25;21.27;;;28.10;99.90;;;;;;7286507;19;20834;-78
2023/08/25 11:14:31;;;;;;;28.75;21.63;;;27.50;99.90;;;;;;7286425;19;20218;-78
2023/08/25 11:16:57;;;;;;;31.98;22.38;;;26.90;99.90;;;;;;7286359;19;20201;-79
2023/08/25 11:19:26;;;;;;;31.48;22.55;;;26.50;99.90;;;;;;7285417;19;20287;-78
2023/08/25 11:22:06;;;;;;;34.63;23.63;;;26.20;99.90;;;;;;7287082;19;20192;-78
2023/08/25 11:24:32;;;;;;;31.52;21.92;;;25.70;99.90;;;;;;7281950;19;20222;-78
2023/08/25 11:27:09;;;;;;;35.60;22.20;;;25.00;99.90;;;;;;7285602;19;20217;-77
2023/08/25 11:29:35;;;;;;;32.67;22.47;;;24.90;99.90;;;;;;7287839;19;20252;-78
2023/08/25 11:32:02;;;;;;;34.40;21.63;;;25.20;99.90;;;;;;7284546;19;20264;-77
2023/08/25 11:34:34;;;;;;;28.73;19.57;;;25.50;99.90;;;;;;7284764;19;20252;-77
2023/08/25 11:37:00;;;;;;;33.20;22.00;;;25.70;99.90;;;;;;7286491;19;20192;-78
2023/08/25 11:39:26;;;;;;;34.20;22.13;;;25.60;99.90;;;;;;7285111;19;20202;-78
2023/08/25 11:41:53;;;;;;;35.00;23.63;;;25.60;99.90;;;;;;7286061;19;20189;-78
2023/08/25 11:44:19;;;;;;;35.75;23.05;;;26.30;99.90;;;;;;7286526;19;20181;-77
2023/08/25 11:46:45;;;;;;;34.88;22.73;;;27.40;99.90;;;;;;7284357;19;20193;-78
2023/08/25 11:49:11;;;;;;;30.70;20.70;;;28.10;99.90;;;;;;7306415;19;20193;-79
2023/08/25 11:51:37;;;;;;;28.65;20.45;;;28.60;99.90;;;;;;7284032;19;20181;-79
2023/08/25 11:54:04;;;;;;;35.10;25.35;;;28.60;99.90;;;;;;7285383;19;20195;-78
2023/08/25 11:56:30;;;;;;;41.90;29.38;;;28.10;99.90;;;;;;7285857;19;20202;-77
2023/08/25 11:58:55;;;;;;;43.30;30.88;;;28.10;99.90;;;;;;7283855;19;20196;-78
2023/08/25 12:01:21;;;;;;;50.03;33.33;;;27.70;99.90;;;;;;7282969;19;20218;-76
2023/08/25 12:03:47;;;;;;;47.40;32.85;;;27.60;99.90;;;;;;7284002;19;20196;-76
2023/08/25 12:06:13;;;;;;;47.00;31.15;;;27.60;99.90;;;;;;7287162;19;20193;-76
2023/08/25 12:08:41;;;;;;;42.72;29.58;;;28.10;99.90;;;;;;7305735;19;20188;-77
2023/08/25 12:11:08;;;;;;;37.28;26.77;;;28.80;99.90;;;;;;7284844;19;20285;-77
2023/08/25 12:13:35;;;;;;;35.33;24.98;;;29.90;99.90;;;;;;7284334;19;20194;-85
2023/08/25 12:16:04;;;;;;;31.75;23.95;;;30.50;99.90;;;;;;7284997;19;20213;-77
2023/08/25 12:18:36;;;;;;;37.45;25.38;;;30.20;99.90;;;;;;7283536;19;20192;-77
2023/08/25 12:21:05;;;;;;;33.40;23.73;;;30.20;99.90;;;;;;7284000;19;20708;-78
2023/08/25 12:23:41;;;;;;;33.15;21.98;;;30.10;99.90;;;;;;7283700;19;20196;-77
2023/08/25 12:26:14;;;;;;;34.28;22.27;;;30.10;99.90;;;;;;7284201;19;20195;-78
2023/08/25 12:28:43;;;;;;;30.20;21.85;;;29.90;99.90;;;;;;7283131;19;20180;-77
2023/08/25 12:31:09;;;;;;;35.10;24.15;;;29.40;99.90;;;;;;7283302;19;20189;-78
2023/08/25 12:33:35;;;;;;;34.13;24.35;;;28.90;99.90;;;;;;7280859;19;20597;-79